sensor_id;sensor_type;location;lat;lon;timestamp;P1;durP1;ratioP1;P2;durP2;ratioP2
12052;SDS011;6087;48.982;12.064;2023-07-16T00:02:02;3.35;;;2.88;;
12052;SDS011;6087;48.982;12.064;2023-07-16T00:04:30;6.05;;;3.10;;
12052;SDS011;6087;48.982;12.064;2023-07-16T00:06:57;3.13;;;2.83;;
12052;SDS011;6087;48.982;12.064;2023-07-16T00:09:26;3.15;;;2.58;;
12052;SDS011;6087;48.982;12.064;2023-07-16T00:11:53;2.80;;;2.60;;
12052;SDS011;6087;48.982;12.064;2023-07-16T00:14:20;3.45;;;3.13;;
12052;SDS011;6087;48.982;12.064;2023-07-16T00:16:47;4.13;;;2.78;;
12052;SDS011;6087;48.982;12.064;2023-07-16T00:19:14;3.47;;;2.55;;
12052;SDS011;6087;48.982;12.064;2023-07-16T00:21:42;3.28;;;2.60;;
12052;SDS011;6087;48.982;12.064;2023-07-16T00:24:09;3.65;;;2.92;;
12052;SDS011;6087;48.982;12.064;2023-07-16T00:26:37;5.93;;;2.80;;
12052;SDS011;6087;48.982;12.064;2023-07-16T00:29:04;3.40;;;2.85;;
12052;SDS011;6087;48.982;12.064;2023-07-16T00:31:31;2.97;;;2.65;;
12052;SDS011;6087;48.982;12.064;2023-07-16T00:33:58;2.72;;;2.50;;
12052;SDS011;6087;48.982;12.064;2023-07-16T00:36:25;2.58;;;2.38;;
12052;SDS011;6087;48.982;12.064;2023-07-16T00:38:52;4.60;;;2.58;;
12052;SDS011;6087;48.982;12.064;2023-07-16T00:41:19;3.53;;;2.58;;
12052;SDS011;6087;48.982;12.064;2023-07-16T00:43:48;4.35;;;3.03;;
12052;SDS011;6087;48.982;12.064;2023-07-16T00:46:15;2.53;;;2.33;;
12052;SDS011;6087;48.982;12.064;2023-07-16T00:48:42;3.63;;;2.80;;
12052;SDS011;6087;48.982;12.064;2023-07-16T00:51:09;2.65;;;2.42;;
12052;SDS011;6087;48.982;12.064;2023-07-16T00:53:38;3.35;;;3.05;;
12052;SDS011;6087;48.982;12.064;2023-07-16T00:56:05;3.50;;;2.72;;
12052;SDS011;6087;48.982;12.064;2023-07-16T00:58:34;3.90;;;2.75;;
12052;SDS011;6087;48.982;12.064;2023-07-16T01:01:02;7.05;;;2.95;;
12052;SDS011;6087;48.982;12.064;2023-07-16T01:03:29;5.75;;;3.20;;
12052;SDS011;6087;48.982;12.064;2023-07-16T01:05:57;7.70;;;2.92;;
12052;SDS011;6087;48.982;12.064;2023-07-16T01:08:31;3.60;;;3.13;;
12052;SDS011;6087;48.982;12.064;2023-07-16T01:11:01;6.03;;;3.28;;
12052;SDS011;6087;48.982;12.064;2023-07-16T01:13:29;3.72;;;3.08;;
12052;SDS011;6087;48.982;12.064;2023-07-16T01:15:56;3.35;;;3.05;;
12052;SDS011;6087;48.982;12.064;2023-07-16T01:18:25;3.42;;;3.08;;
12052;SDS011;6087;48.982;12.064;2023-07-16T01:20:54;5.45;;;3.20;;
12052;SDS011;6087;48.982;12.064;2023-07-16T01:23:26;6.28;;;3.28;;
12052;SDS011;6087;48.982;12.064;2023-07-16T01:26:06;5.43;;;2.85;;
12052;SDS011;6087;48.982;12.064;2023-07-16T01:28:45;3.88;;;3.00;;
12052;SDS011;6087;48.982;12.064;2023-07-16T01:31:45;5.38;;;3.00;;
12052;SDS011;6087;48.982;12.064;2023-07-16T01:34:14;3.58;;;3.22;;
12052;SDS011;6087;48.982;12.064;2023-07-16T01:36:42;3.35;;;2.95;;
12052;SDS011;6087;48.982;12.064;2023-07-16T01:39:09;3.40;;;2.80;;
12052;SDS011;6087;48.982;12.064;2023-07-16T01:41:39;5.75;;;3.05;;
12052;SDS011;6087;48.982;12.064;2023-07-16T01:44:06;2.95;;;2.67;;
12052;SDS011;6087;48.982;12.064;2023-07-16T01:46:33;3.60;;;3.05;;
12052;SDS011;6087;48.982;12.064;2023-07-16T01:49:04;3.80;;;3.17;;
12052;SDS011;6087;48.982;12.064;2023-07-16T01:51:31;3.08;;;2.78;;
12052;SDS011;6087;48.982;12.064;2023-07-16T01:53:58;4.15;;;3.55;;
12052;SDS011;6087;48.982;12.064;2023-07-16T01:56:25;5.50;;;3.15;;
12052;SDS011;6087;48.982;12.064;2023-07-16T01:58:52;3.38;;;3.03;;
12052;SDS011;6087;48.982;12.064;2023-07-16T02:01:19;5.10;;;2.88;;
12052;SDS011;6087;48.982;12.064;2023-07-16T02:03:47;4.15;;;2.90;;
12052;SDS011;6087;48.982;12.064;2023-07-16T02:06:15;4.70;;;3.45;;
12052;SDS011;6087;48.982;12.064;2023-07-16T02:08:42;4.63;;;3.33;;
12052;SDS011;6087;48.982;12.064;2023-07-16T02:11:09;3.38;;;2.90;;
12052;SDS011;6087;48.982;12.064;2023-07-16T02:13:36;3.35;;;3.05;;
12052;SDS011;6087;48.982;12.064;2023-07-16T02:16:03;5.28;;;3.08;;
12052;SDS011;6087;48.982;12.064;2023-07-16T02:18:30;3.83;;;3.10;;
12052;SDS011;6087;48.982;12.064;2023-07-16T02:20:57;4.47;;;3.45;;
12052;SDS011;6087;48.982;12.064;2023-07-16T02:23:26;4.13;;;3.17;;
12052;SDS011;6087;48.982;12.064;2023-07-16T02:25:53;4.15;;;2.40;;
12052;SDS011;6087;48.982;12.064;2023-07-16T02:28:20;2.97;;;2.55;;
12052;SDS011;6087;48.982;12.064;2023-07-16T02:30:48;3.17;;;2.92;;
12052;SDS011;6087;48.982;12.064;2023-07-16T02:33:15;3.53;;;2.47;;
12052;SDS011;6087;48.982;12.064;2023-07-16T02:35:45;3.10;;;2.75;;
12052;SDS011;6087;48.982;12.064;2023-07-16T02:38:13;3.28;;;2.97;;
12052;SDS011;6087;48.982;12.064;2023-07-16T02:40:43;4.03;;;3.05;;
12052;SDS011;6087;48.982;12.064;2023-07-16T02:43:11;3.75;;;3.08;;
12052;SDS011;6087;48.982;12.064;2023-07-16T02:45:38;5.05;;;3.47;;
12052;SDS011;6087;48.982;12.064;2023-07-16T02:48:05;3.33;;;2.92;;
12052;SDS011;6087;48.982;12.064;2023-07-16T02:50:36;4.97;;;2.80;;
12052;SDS011;6087;48.982;12.064;2023-07-16T02:53:03;3.40;;;3.10;;
12052;SDS011;6087;48.982;12.064;2023-07-16T02:55:30;3.45;;;2.65;;
12052;SDS011;6087;48.982;12.064;2023-07-16T02:57:58;4.38;;;3.22;;
12052;SDS011;6087;48.982;12.064;2023-07-16T03:00:29;3.40;;;3.10;;
12052;SDS011;6087;48.982;12.064;2023-07-16T03:03:02;3.55;;;3.25;;
12052;SDS011;6087;48.982;12.064;2023-07-16T03:05:29;4.40;;;3.03;;
12052;SDS011;6087;48.982;12.064;2023-07-16T03:07:56;3.95;;;3.10;;
12052;SDS011;6087;48.982;12.064;2023-07-16T03:10:29;8.23;;;3.38;;
12052;SDS011;6087;48.982;12.064;2023-07-16T03:12:56;4.68;;;3.33;;
12052;SDS011;6087;48.982;12.064;2023-07-16T03:15:24;3.60;;;3.22;;
12052;SDS011;6087;48.982;12.064;2023-07-16T03:17:51;4.18;;;3.28;;
12052;SDS011;6087;48.982;12.064;2023-07-16T03:20:18;5.78;;;3.35;;
12052;SDS011;6087;48.982;12.064;2023-07-16T03:22:45;5.13;;;3.28;;
12052;SDS011;6087;48.982;12.064;2023-07-16T03:25:12;3.75;;;3.38;;
12052;SDS011;6087;48.982;12.064;2023-07-16T03:27:39;3.20;;;2.83;;
12052;SDS011;6087;48.982;12.064;2023-07-16T03:30:07;4.45;;;3.30;;
12052;SDS011;6087;48.982;12.064;2023-07-16T03:32:36;3.55;;;3.25;;
12052;SDS011;6087;48.982;12.064;2023-07-16T03:35:03;4.95;;;3.65;;
12052;SDS011;6087;48.982;12.064;2023-07-16T03:37:30;3.65;;;3.35;;
12052;SDS011;6087;48.982;12.064;2023-07-16T03:40:11;3.22;;;2.92;;
12052;SDS011;6087;48.982;12.064;2023-07-16T03:42:39;3.17;;;2.88;;
12052;SDS011;6087;48.982;12.064;2023-07-16T03:45:07;4.55;;;2.72;;
12052;SDS011;6087;48.982;12.064;2023-07-16T03:47:36;2.80;;;2.58;;
12052;SDS011;6087;48.982;12.064;2023-07-16T03:50:03;3.63;;;2.60;;
12052;SDS011;6087;48.982;12.064;2023-07-16T03:52:31;3.08;;;2.78;;
12052;SDS011;6087;48.982;12.064;2023-07-16T03:54:58;3.05;;;2.30;;
12052;SDS011;6087;48.982;12.064;2023-07-16T03:57:25;3.00;;;2.80;;
12052;SDS011;6087;48.982;12.064;2023-07-16T03:59:52;3.35;;;2.45;;
12052;SDS011;6087;48.982;12.064;2023-07-16T04:02:19;2.72;;;2.25;;
12052;SDS011;6087;48.982;12.064;2023-07-16T04:04:47;4.47;;;2.83;;
12052;SDS011;6087;48.982;12.064;2023-07-16T04:07:15;2.97;;;2.50;;
12052;SDS011;6087;48.982;12.064;2023-07-16T04:09:42;3.10;;;2.80;;
12052;SDS011;6087;48.982;12.064;2023-07-16T04:12:09;3.20;;;2.60;;
12052;SDS011;6087;48.982;12.064;2023-07-16T04:14:36;5.03;;;2.38;;
12052;SDS011;6087;48.982;12.064;2023-07-16T04:17:03;4.55;;;2.47;;
12052;SDS011;6087;48.982;12.064;2023-07-16T04:19:31;4.05;;;2.22;;
12052;SDS011;6087;48.982;12.064;2023-07-16T04:22:01;2.50;;;2.30;;
12052;SDS011;6087;48.982;12.064;2023-07-16T04:24:29;2.35;;;2.00;;
12052;SDS011;6087;48.982;12.064;2023-07-16T04:26:56;3.67;;;2.10;;
12052;SDS011;6087;48.982;12.064;2023-07-16T04:29:26;2.78;;;2.50;;
12052;SDS011;6087;48.982;12.064;2023-07-16T04:31:55;3.25;;;2.22;;
12052;SDS011;6087;48.982;12.064;2023-07-16T04:34:23;3.70;;;2.22;;
12052;SDS011;6087;48.982;12.064;2023-07-16T04:36:53;2.78;;;2.03;;
12052;SDS011;6087;48.982;12.064;2023-07-16T04:39:21;2.50;;;2.30;;
12052;SDS011;6087;48.982;12.064;2023-07-16T04:41:51;2.30;;;2.10;;
12052;SDS011;6087;48.982;12.064;2023-07-16T04:44:18;2.10;;;1.98;;
12052;SDS011;6087;48.982;12.064;2023-07-16T04:46:45;2.22;;;2.10;;
12052;SDS011;6087;48.982;12.064;2023-07-16T04:49:12;2.45;;;2.08;;
12052;SDS011;6087;48.982;12.064;2023-07-16T04:51:39;2.15;;;1.70;;
12052;SDS011;6087;48.982;12.064;2023-07-16T04:54:06;2.17;;;1.85;;
12052;SDS011;6087;48.982;12.064;2023-07-16T04:56:34;2.15;;;1.95;;
12052;SDS011;6087;48.982;12.064;2023-07-16T04:59:02;1.83;;;1.60;;
12052;SDS011;6087;48.982;12.064;2023-07-16T05:01:29;2.60;;;1.50;;
12052;SDS011;6087;48.982;12.064;2023-07-16T05:03:58;1.75;;;1.60;;
12052;SDS011;6087;48.982;12.064;2023-07-16T05:06:25;1.73;;;1.63;;
12052;SDS011;6087;48.982;12.064;2023-07-16T05:08:52;1.77;;;1.67;;
12052;SDS011;6087;48.982;12.064;2023-07-16T05:11:24;1.77;;;1.63;;
12052;SDS011;6087;48.982;12.064;2023-07-16T05:13:58;2.70;;;1.50;;
12052;SDS011;6087;48.982;12.064;2023-07-16T05:16:30;1.83;;;1.63;;
12052;SDS011;6087;48.982;12.064;2023-07-16T05:18:57;1.77;;;1.38;;
12052;SDS011;6087;48.982;12.064;2023-07-16T05:21:24;1.50;;;1.40;;
12052;SDS011;6087;48.982;12.064;2023-07-16T05:23:59;1.60;;;1.50;;
12052;SDS011;6087;48.982;12.064;2023-07-16T05:26:38;1.27;;;1.17;;
12052;SDS011;6087;48.982;12.064;2023-07-16T05:29:11;1.40;;;1.30;;
12052;SDS011;6087;48.982;12.064;2023-07-16T05:32:08;1.92;;;1.42;;
12052;SDS011;6087;48.982;12.064;2023-07-16T05:34:35;2.45;;;1.20;;
12052;SDS011;6087;48.982;12.064;2023-07-16T05:37:04;1.55;;;1.20;;
12052;SDS011;6087;48.982;12.064;2023-07-16T05:39:34;3.50;;;1.27;;
12052;SDS011;6087;48.982;12.064;2023-07-16T05:42:05;1.30;;;1.20;;
12052;SDS011;6087;48.982;12.064;2023-07-16T05:44:34;1.55;;;1.40;;
12052;SDS011;6087;48.982;12.064;2023-07-16T05:47:07;2.13;;;1.27;;
12052;SDS011;6087;48.982;12.064;2023-07-16T05:49:48;0.90;;;0.90;;
12052;SDS011;6087;48.982;12.064;2023-07-16T05:52:15;1.58;;;1.48;;
12052;SDS011;6087;48.982;12.064;2023-07-16T05:54:45;1.50;;;1.02;;
12052;SDS011;6087;48.982;12.064;2023-07-16T05:57:15;1.20;;;1.15;;
12052;SDS011;6087;48.982;12.064;2023-07-16T05:59:43;1.30;;;1.20;;
12052;SDS011;6087;48.982;12.064;2023-07-16T06:02:10;2.28;;;1.30;;
12052;SDS011;6087;48.982;12.064;2023-07-16T06:04:37;1.75;;;1.17;;
12052;SDS011;6087;48.982;12.064;2023-07-16T06:07:05;1.23;;;1.20;;
12052;SDS011;6087;48.982;12.064;2023-07-16T06:09:32;2.03;;;1.30;;
12052;SDS011;6087;48.982;12.064;2023-07-16T06:11:59;1.73;;;1.10;;
12052;SDS011;6087;48.982;12.064;2023-07-16T06:14:26;2.08;;;1.30;;
12052;SDS011;6087;48.982;12.064;2023-07-16T06:16:55;2.25;;;1.55;;
12052;SDS011;6087;48.982;12.064;2023-07-16T06:19:22;2.55;;;1.20;;
12052;SDS011;6087;48.982;12.064;2023-07-16T06:21:48;1.65;;;1.05;;
12052;SDS011;6087;48.982;12.064;2023-07-16T06:24:15;1.40;;;1.30;;
12052;SDS011;6087;48.982;12.064;2023-07-16T06:26:48;1.40;;;1.30;;
12052;SDS011;6087;48.982;12.064;2023-07-16T06:29:15;2.25;;;1.20;;
12052;SDS011;6087;48.982;12.064;2023-07-16T06:31:42;2.63;;;1.23;;
12052;SDS011;6087;48.982;12.064;2023-07-16T06:34:22;1.45;;;1.30;;
12052;SDS011;6087;48.982;12.064;2023-07-16T06:36:49;1.33;;;1.20;;
12052;SDS011;6087;48.982;12.064;2023-07-16T06:39:16;1.80;;;1.30;;
12052;SDS011;6087;48.982;12.064;2023-07-16T06:41:43;2.30;;;1.38;;
12052;SDS011;6087;48.982;12.064;2023-07-16T06:44:10;1.77;;;1.30;;
12052;SDS011;6087;48.982;12.064;2023-07-16T06:46:37;1.15;;;1.10;;
12052;SDS011;6087;48.982;12.064;2023-07-16T06:49:07;1.48;;;1.35;;
12052;SDS011;6087;48.982;12.064;2023-07-16T06:51:36;1.30;;;1.20;;
12052;SDS011;6087;48.982;12.064;2023-07-16T06:54:03;3.03;;;1.50;;
12052;SDS011;6087;48.982;12.064;2023-07-16T06:56:30;2.38;;;1.50;;
12052;SDS011;6087;48.982;12.064;2023-07-16T06:58:57;2.65;;;1.35;;
12052;SDS011;6087;48.982;12.064;2023-07-16T07:01:24;2.55;;;1.38;;
12052;SDS011;6087;48.982;12.064;2023-07-16T07:03:52;1.75;;;1.65;;
12052;SDS011;6087;48.982;12.064;2023-07-16T07:06:20;0.90;;;0.90;;
12052;SDS011;6087;48.982;12.064;2023-07-16T07:08:48;1.70;;;1.58;;
12052;SDS011;6087;48.982;12.064;2023-07-16T07:11:15;1.60;;;1.20;;
12052;SDS011;6087;48.982;12.064;2023-07-16T07:13:42;1.73;;;1.23;;
12052;SDS011;6087;48.982;12.064;2023-07-16T07:16:09;2.05;;;1.40;;
12052;SDS011;6087;48.982;12.064;2023-07-16T07:18:36;1.95;;;1.35;;
12052;SDS011;6087;48.982;12.064;2023-07-16T07:21:03;3.47;;;1.17;;
12052;SDS011;6087;48.982;12.064;2023-07-16T07:23:30;2.33;;;1.25;;
12052;SDS011;6087;48.982;12.064;2023-07-16T07:25:59;3.83;;;1.40;;
12052;SDS011;6087;48.982;12.064;2023-07-16T07:28:26;1.88;;;1.27;;
12052;SDS011;6087;48.982;12.064;2023-07-16T07:30:53;2.10;;;1.25;;
12052;SDS011;6087;48.982;12.064;2023-07-16T07:33:20;2.30;;;1.50;;
12052;SDS011;6087;48.982;12.064;2023-07-16T07:35:47;3.55;;;1.42;;
12052;SDS011;6087;48.982;12.064;2023-07-16T07:38:14;1.85;;;1.30;;
12052;SDS011;6087;48.982;12.064;2023-07-16T07:40:44;4.85;;;1.35;;
12052;SDS011;6087;48.982;12.064;2023-07-16T07:43:15;2.97;;;1.27;;
12052;SDS011;6087;48.982;12.064;2023-07-16T07:45:42;1.73;;;1.20;;
12052;SDS011;6087;48.982;12.064;2023-07-16T07:48:13;2.25;;;1.20;;
12052;SDS011;6087;48.982;12.064;2023-07-16T07:50:40;3.88;;;1.48;;
12052;SDS011;6087;48.982;12.064;2023-07-16T07:53:07;2.03;;;1.10;;
12052;SDS011;6087;48.982;12.064;2023-07-16T07:55:34;1.77;;;1.40;;
12052;SDS011;6087;48.982;12.064;2023-07-16T07:58:01;1.40;;;1.30;;
12052;SDS011;6087;48.982;12.064;2023-07-16T08:00:30;1.40;;;1.30;;
12052;SDS011;6087;48.982;12.064;2023-07-16T08:02:56;1.38;;;1.00;;
12052;SDS011;6087;48.982;12.064;2023-07-16T08:05:23;1.55;;;1.25;;
12052;SDS011;6087;48.982;12.064;2023-07-16T08:07:51;1.30;;;1.20;;
12052;SDS011;6087;48.982;12.064;2023-07-16T08:10:18;2.15;;;1.17;;
12052;SDS011;6087;48.982;12.064;2023-07-16T08:12:45;1.70;;;1.45;;
12052;SDS011;6087;48.982;12.064;2023-07-16T08:15:12;2.28;;;1.30;;
12052;SDS011;6087;48.982;12.064;2023-07-16T08:17:41;1.73;;;1.63;;
12052;SDS011;6087;48.982;12.064;2023-07-16T08:20:09;3.00;;;1.20;;
12052;SDS011;6087;48.982;12.064;2023-07-16T08:22:37;4.38;;;1.58;;
12052;SDS011;6087;48.982;12.064;2023-07-16T08:25:05;4.38;;;1.80;;
12052;SDS011;6087;48.982;12.064;2023-07-16T08:27:33;3.15;;;1.35;;
12052;SDS011;6087;48.982;12.064;2023-07-16T08:30:04;2.13;;;1.92;;
12052;SDS011;6087;48.982;12.064;2023-07-16T08:32:32;1.45;;;1.30;;
12052;SDS011;6087;48.982;12.064;2023-07-16T08:35:00;4.45;;;1.80;;
12052;SDS011;6087;48.982;12.064;2023-07-16T08:37:27;2.60;;;1.52;;
12052;SDS011;6087;48.982;12.064;2023-07-16T08:39:54;5.97;;;2.15;;
12052;SDS011;6087;48.982;12.064;2023-07-16T08:42:21;5.75;;;1.40;;
12052;SDS011;6087;48.982;12.064;2023-07-16T08:44:49;4.82;;;2.15;;
12052;SDS011;6087;48.982;12.064;2023-07-16T08:47:18;2.22;;;1.40;;
12052;SDS011;6087;48.982;12.064;2023-07-16T08:49:50;5.90;;;1.77;;
12052;SDS011;6087;48.982;12.064;2023-07-16T08:52:24;2.88;;;1.20;;
12052;SDS011;6087;48.982;12.064;2023-07-16T08:54:53;5.25;;;1.73;;
12052;SDS011;6087;48.982;12.064;2023-07-16T08:57:20;2.63;;;2.00;;
12052;SDS011;6087;48.982;12.064;2023-07-16T08:59:48;6.20;;;1.60;;
12052;SDS011;6087;48.982;12.064;2023-07-16T09:02:17;3.88;;;2.25;;
12052;SDS011;6087;48.982;12.064;2023-07-16T09:04:45;1.77;;;1.33;;
12052;SDS011;6087;48.982;12.064;2023-07-16T09:07:13;2.92;;;1.48;;
12052;SDS011;6087;48.982;12.064;2023-07-16T09:09:54;4.25;;;1.63;;
12052;SDS011;6087;48.982;12.064;2023-07-16T09:12:25;3.08;;;1.95;;
12052;SDS011;6087;48.982;12.064;2023-07-16T09:14:52;4.60;;;2.25;;
12052;SDS011;6087;48.982;12.064;2023-07-16T09:17:20;2.25;;;1.60;;
12052;SDS011;6087;48.982;12.064;2023-07-16T09:19:50;3.03;;;1.75;;
12052;SDS011;6087;48.982;12.064;2023-07-16T09:22:19;2.03;;;1.73;;
12052;SDS011;6087;48.982;12.064;2023-07-16T09:24:51;2.97;;;1.70;;
12052;SDS011;6087;48.982;12.064;2023-07-16T09:27:18;2.85;;;2.10;;
12052;SDS011;6087;48.982;12.064;2023-07-16T09:29:47;2.97;;;1.58;;
12052;SDS011;6087;48.982;12.064;2023-07-16T09:32:14;6.13;;;1.80;;
12052;SDS011;6087;48.982;12.064;2023-07-16T09:34:41;6.03;;;1.73;;
12052;SDS011;6087;48.982;12.064;2023-07-16T09:37:08;3.95;;;1.67;;
12052;SDS011;6087;48.982;12.064;2023-07-16T09:39:36;2.10;;;1.50;;
12052;SDS011;6087;48.982;12.064;2023-07-16T09:42:05;3.63;;;1.55;;
12052;SDS011;6087;48.982;12.064;2023-07-16T09:44:34;3.33;;;1.60;;
12052;SDS011;6087;48.982;12.064;2023-07-16T09:47:02;3.42;;;1.80;;
12052;SDS011;6087;48.982;12.064;2023-07-16T09:49:29;2.22;;;1.52;;
12052;SDS011;6087;48.982;12.064;2023-07-16T09:51:56;3.08;;;1.73;;
12052;SDS011;6087;48.982;12.064;2023-07-16T09:54:24;2.17;;;1.55;;
12052;SDS011;6087;48.982;12.064;2023-07-16T09:56:53;2.65;;;1.88;;
12052;SDS011;6087;48.982;12.064;2023-07-16T09:59:25;2.85;;;1.55;;
12052;SDS011;6087;48.982;12.064;2023-07-16T10:01:54;2.03;;;1.80;;
12052;SDS011;6087;48.982;12.064;2023-07-16T10:04:22;4.38;;;1.83;;
12052;SDS011;6087;48.982;12.064;2023-07-16T10:06:50;4.28;;;1.77;;
12052;SDS011;6087;48.982;12.064;2023-07-16T10:09:33;1.92;;;1.70;;
12052;SDS011;6087;48.982;12.064;2023-07-16T10:12:13;2.08;;;1.67;;
12052;SDS011;6087;48.982;12.064;2023-07-16T10:14:43;2.28;;;1.33;;
12052;SDS011;6087;48.982;12.064;2023-07-16T10:17:15;2.10;;;1.88;;
12052;SDS011;6087;48.982;12.064;2023-07-16T10:22:33;2.55;;;1.75;;
12052;SDS011;6087;48.982;12.064;2023-07-16T10:25:01;2.72;;;1.50;;
12052;SDS011;6087;48.982;12.064;2023-07-16T10:27:29;4.05;;;2.00;;
12052;SDS011;6087;48.982;12.064;2023-07-16T10:29:59;2.63;;;1.90;;
12052;SDS011;6087;48.982;12.064;2023-07-16T10:32:28;2.33;;;1.70;;
12052;SDS011;6087;48.982;12.064;2023-07-16T10:34:56;1.88;;;1.73;;
12052;SDS011;6087;48.982;12.064;2023-07-16T10:37:23;2.20;;;1.70;;
12052;SDS011;6087;48.982;12.064;2023-07-16T10:39:51;1.90;;;1.80;;
12052;SDS011;6087;48.982;12.064;2023-07-16T10:42:19;2.42;;;2.17;;
12052;SDS011;6087;48.982;12.064;2023-07-16T10:44:50;4.18;;;1.85;;
12052;SDS011;6087;48.982;12.064;2023-07-16T10:47:19;1.70;;;1.55;;
12052;SDS011;6087;48.982;12.064;2023-07-16T10:49:48;2.55;;;1.85;;
12052;SDS011;6087;48.982;12.064;2023-07-16T10:52:17;2.15;;;2.03;;
12052;SDS011;6087;48.982;12.064;2023-07-16T10:54:43;2.40;;;1.92;;
12052;SDS011;6087;48.982;12.064;2023-07-16T10:57:13;2.17;;;1.67;;
12052;SDS011;6087;48.982;12.064;2023-07-16T10:59:44;2.85;;;2.25;;
12052;SDS011;6087;48.982;12.064;2023-07-16T11:02:14;3.10;;;1.92;;
12052;SDS011;6087;48.982;12.064;2023-07-16T11:04:43;1.88;;;1.63;;
12052;SDS011;6087;48.982;12.064;2023-07-16T11:07:12;2.92;;;1.77;;
12052;SDS011;6087;48.982;12.064;2023-07-16T11:09:40;2.78;;;1.80;;
12052;SDS011;6087;48.982;12.064;2023-07-16T11:12:11;2.17;;;1.85;;
12052;SDS011;6087;48.982;12.064;2023-07-16T11:14:38;1.65;;;1.48;;
12052;SDS011;6087;48.982;12.064;2023-07-16T11:17:05;2.13;;;1.75;;
12052;SDS011;6087;48.982;12.064;2023-07-16T11:19:34;1.90;;;1.80;;
12052;SDS011;6087;48.982;12.064;2023-07-16T11:22:12;1.98;;;1.80;;
12052;SDS011;6087;48.982;12.064;2023-07-16T11:24:39;3.08;;;1.70;;
12052;SDS011;6087;48.982;12.064;2023-07-16T11:27:14;2.03;;;1.58;;
12052;SDS011;6087;48.982;12.064;2023-07-16T11:29:45;1.85;;;1.70;;
12052;SDS011;6087;48.982;12.064;2023-07-16T11:32:13;1.75;;;1.58;;
12052;SDS011;6087;48.982;12.064;2023-07-16T11:34:51;3.25;;;1.70;;
12052;SDS011;6087;48.982;12.064;2023-07-16T11:37:20;1.63;;;1.52;;
12052;SDS011;6087;48.982;12.064;2023-07-16T11:39:48;2.00;;;1.67;;
12052;SDS011;6087;48.982;12.064;2023-07-16T11:42:18;1.58;;;1.42;;
12052;SDS011;6087;48.982;12.064;2023-07-16T11:44:50;2.72;;;1.60;;
12052;SDS011;6087;48.982;12.064;2023-07-16T11:47:17;2.20;;;1.55;;
12052;SDS011;6087;48.982;12.064;2023-07-16T11:49:50;3.80;;;1.50;;
12052;SDS011;6087;48.982;12.064;2023-07-16T11:52:18;2.47;;;1.55;;
12052;SDS011;6087;48.982;12.064;2023-07-16T11:54:47;1.52;;;1.30;;
12052;SDS011;6087;48.982;12.064;2023-07-16T11:57:15;1.77;;;1.65;;
12052;SDS011;6087;48.982;12.064;2023-07-16T11:59:42;1.95;;;1.85;;
12052;SDS011;6087;48.982;12.064;2023-07-16T12:02:09;3.03;;;1.85;;
12052;SDS011;6087;48.982;12.064;2023-07-16T12:04:36;4.30;;;1.95;;
12052;SDS011;6087;48.982;12.064;2023-07-16T12:07:03;1.58;;;1.45;;
12052;SDS011;6087;48.982;12.064;2023-07-16T12:09:31;2.17;;;1.33;;
12052;SDS011;6087;48.982;12.064;2023-07-16T12:11:58;3.22;;;1.80;;
12052;SDS011;6087;48.982;12.064;2023-07-16T12:14:26;2.17;;;1.70;;
12052;SDS011;6087;48.982;12.064;2023-07-16T12:16:53;1.45;;;1.35;;
12052;SDS011;6087;48.982;12.064;2023-07-16T12:19:20;2.67;;;1.80;;
12052;SDS011;6087;48.982;12.064;2023-07-16T12:21:47;3.10;;;1.90;;
12052;SDS011;6087;48.982;12.064;2023-07-16T12:24:14;2.38;;;1.75;;
12052;SDS011;6087;48.982;12.064;2023-07-16T12:26:42;2.10;;;1.70;;
12052;SDS011;6087;48.982;12.064;2023-07-16T12:29:12;2.85;;;2.00;;
12052;SDS011;6087;48.982;12.064;2023-07-16T12:31:39;2.05;;;1.95;;
12052;SDS011;6087;48.982;12.064;2023-07-16T12:34:06;2.92;;;1.88;;
12052;SDS011;6087;48.982;12.064;2023-07-16T12:36:33;3.42;;;1.88;;
12052;SDS011;6087;48.982;12.064;2023-07-16T12:39:00;2.00;;;1.90;;
12052;SDS011;6087;48.982;12.064;2023-07-16T12:41:27;2.45;;;1.85;;
12052;SDS011;6087;48.982;12.064;2023-07-16T12:43:58;2.03;;;1.83;;
12052;SDS011;6087;48.982;12.064;2023-07-16T12:46:25;1.85;;;1.75;;
12052;SDS011;6087;48.982;12.064;2023-07-16T12:48:52;2.85;;;1.95;;
12052;SDS011;6087;48.982;12.064;2023-07-16T12:51:19;2.10;;;1.90;;
12052;SDS011;6087;48.982;12.064;2023-07-16T12:53:45;2.25;;;2.08;;
12052;SDS011;6087;48.982;12.064;2023-07-16T12:56:12;2.60;;;2.40;;
12052;SDS011;6087;48.982;12.064;2023-07-16T12:58:39;2.20;;;2.10;;
12052;SDS011;6087;48.982;12.064;2023-07-16T13:01:08;2.67;;;2.47;;
12052;SDS011;6087;48.982;12.064;2023-07-16T13:03:35;5.45;;;2.03;;
12052;SDS011;6087;48.982;12.064;2023-07-16T13:06:02;2.10;;;1.90;;
12052;SDS011;6087;48.982;12.064;2023-07-16T13:08:29;2.30;;;2.20;;
12052;SDS011;6087;48.982;12.064;2023-07-16T13:10:56;2.53;;;2.33;;
12052;SDS011;6087;48.982;12.064;2023-07-16T13:13:23;2.42;;;2.03;;
12052;SDS011;6087;48.982;12.064;2023-07-16T13:15:50;2.58;;;2.38;;
12052;SDS011;6087;48.982;12.064;2023-07-16T13:18:19;3.08;;;2.10;;
12052;SDS011;6087;48.982;12.064;2023-07-16T13:20:46;2.45;;;2.25;;
12052;SDS011;6087;48.982;12.064;2023-07-16T13:23:13;2.47;;;2.38;;
12052;SDS011;6087;48.982;12.064;2023-07-16T13:25:40;2.22;;;2.05;;
12052;SDS011;6087;48.982;12.064;2023-07-16T13:28:10;2.25;;;2.05;;
12052;SDS011;6087;48.982;12.064;2023-07-16T13:30:37;4.53;;;2.65;;
12052;SDS011;6087;48.982;12.064;2023-07-16T13:33:04;2.40;;;2.10;;
12052;SDS011;6087;48.982;12.064;2023-07-16T13:35:33;2.13;;;2.03;;
12052;SDS011;6087;48.982;12.064;2023-07-16T13:38:00;2.38;;;2.20;;
12052;SDS011;6087;48.982;12.064;2023-07-16T13:40:27;1.90;;;1.55;;
12052;SDS011;6087;48.982;12.064;2023-07-16T13:43:02;2.85;;;2.33;;
12052;SDS011;6087;48.982;12.064;2023-07-16T13:45:28;3.15;;;2.30;;
12052;SDS011;6087;48.982;12.064;2023-07-16T13:47:55;2.08;;;1.98;;
12052;SDS011;6087;48.982;12.064;2023-07-16T13:50:25;2.35;;;2.20;;
12052;SDS011;6087;48.982;12.064;2023-07-16T13:52:53;2.97;;;2.70;;
12052;SDS011;6087;48.982;12.064;2023-07-16T13:55:24;2.20;;;2.10;;
12052;SDS011;6087;48.982;12.064;2023-07-16T13:57:56;2.65;;;2.45;;
12052;SDS011;6087;48.982;12.064;2023-07-16T14:00:23;2.28;;;2.13;;
12052;SDS011;6087;48.982;12.064;2023-07-16T14:02:50;2.55;;;2.35;;
12052;SDS011;6087;48.982;12.064;2023-07-16T14:05:17;2.65;;;1.95;;
12052;SDS011;6087;48.982;12.064;2023-07-16T14:07:46;2.22;;;2.08;;
12052;SDS011;6087;48.982;12.064;2023-07-16T14:10:14;4.05;;;2.40;;
12052;SDS011;6087;48.982;12.064;2023-07-16T14:12:41;3.33;;;2.33;;
12052;SDS011;6087;48.982;12.064;2023-07-16T14:15:09;2.05;;;1.85;;
12052;SDS011;6087;48.982;12.064;2023-07-16T14:17:37;2.30;;;2.13;;
12052;SDS011;6087;48.982;12.064;2023-07-16T14:20:04;3.92;;;2.80;;
12052;SDS011;6087;48.982;12.064;2023-07-16T14:22:35;2.47;;;2.28;;
12052;SDS011;6087;48.982;12.064;2023-07-16T14:25:02;2.03;;;1.50;;
12052;SDS011;6087;48.982;12.064;2023-07-16T14:27:31;2.55;;;2.10;;
12052;SDS011;6087;48.982;12.064;2023-07-16T14:29:59;2.53;;;2.33;;
12052;SDS011;6087;48.982;12.064;2023-07-16T14:32:26;2.03;;;1.88;;
12052;SDS011;6087;48.982;12.064;2023-07-16T14:34:56;2.40;;;2.05;;
12052;SDS011;6087;48.982;12.064;2023-07-16T14:37:23;2.55;;;2.35;;
12052;SDS011;6087;48.982;12.064;2023-07-16T14:39:51;2.20;;;2.10;;
12052;SDS011;6087;48.982;12.064;2023-07-16T14:42:18;2.47;;;2.25;;
12052;SDS011;6087;48.982;12.064;2023-07-16T14:44:46;1.95;;;1.83;;
12052;SDS011;6087;48.982;12.064;2023-07-16T14:47:17;2.15;;;2.00;;
12052;SDS011;6087;48.982;12.064;2023-07-16T14:49:45;3.92;;;2.10;;
12052;SDS011;6087;48.982;12.064;2023-07-16T14:52:11;2.38;;;2.17;;
12052;SDS011;6087;48.982;12.064;2023-07-16T14:54:38;2.30;;;2.10;;
12052;SDS011;6087;48.982;12.064;2023-07-16T14:57:05;2.47;;;2.10;;
12052;SDS011;6087;48.982;12.064;2023-07-16T14:59:32;2.08;;;1.90;;